Time;durP1;ratioP1;P1;durP2;ratioP2;P2;SDS_P1;SDS_P2;PMS_P1;PMS_P2;Temp;Humidity;BMP_temperature;BMP_pressure;BME280_temperature;BME280_humidity;BME280_pressure;Samples;Min_cycle;Max_cycle;Signal;HPM_P1;HPM_P2
2023/12/09 00:01:08;;;;;;;35.40;10.63;;;;;6.70;100614.00;;;;10035282;29;20252;-87
2023/12/09 00:06:11;;;;;;;24.17;10.87;;;;;6.60;100596.00;;;;10074025;29;20285;-84
2023/12/09 00:11:13;;;;;;;28.23;10.83;;;;;6.60;100588.00;;;;10097744;29;20236;-87
2023/12/09 00:16:14;;;;;;;31.50;9.53;;;;;6.50;100593.00;;;;10060195;29;20600;-88
2023/12/09 00:21:16;;;;;;;33.40;10.23;;;;;6.50;100566.00;;;;10031004;29;20299;-87
2023/12/09 00:26:17;;;;;;;36.77;11.23;;;;;6.50;100561.00;;;;10015261;29;20320;-88
2023/12/09 00:31:18;;;;;;;31.53;10.30;;;;;6.50;100548.00;;;;10029185;29;20687;-87
2023/12/09 00:36:19;;;;;;;31.47;9.80;;;;;6.60;100554.00;;;;10036317;29;20708;-87
2023/12/09 00:41:20;;;;;;;29.83;10.73;;;;;6.60;100558.00;;;;10014511;29;20227;-87
2023/12/09 00:46:22;;;;;;;24.47;8.67;;;;;6.50;100555.00;;;;10012232;29;20335;-85
2023/12/09 00:51:23;;;;;;;28.10;9.10;;;;;6.50;100553.00;;;;10022310;29;20224;-88
2023/12/09 00:56:24;;;;;;;41.57;11.27;;;;;6.50;100546.00;;;;10015494;29;20688;-78
2023/12/09 01:01:36;;;;;;;31.90;10.33;;;;;6.50;100539.00;;;;10022779;29;20327;-80
2023/12/09 01:06:37;;;;;;;32.13;9.90;;;;;6.50;100534.00;;;;9998396;29;20747;-80
2023/12/09 01:11:38;;;;;;;31.90;9.10;;;;;6.60;100518.00;;;;10035437;29;20953;-81
2023/12/09 01:16:40;;;;;;;32.83;9.67;;;;;6.60;100514.00;;;;10024963;29;20264;-80
2023/12/09 01:21:42;;;;;;;29.63;8.90;;;;;6.70;100502.00;;;;10028973;29;20277;-80
2023/12/09 01:26:43;;;;;;;39.90;9.60;;;;;6.80;100508.00;;;;10017274;29;20232;-80
2023/12/09 01:31:44;;;;;;;35.67;9.77;;;;;6.80;100505.00;;;;10019138;29;20229;-80
2023/12/09 01:36:45;;;;;;;30.27;8.37;;;;;6.70;100501.00;;;;10034691;29;20754;-81
2023/12/09 01:41:47;;;;;;;34.17;9.20;;;;;6.60;100494.00;;;;10036154;29;20684;-80
2023/12/09 01:46:48;;;;;;;31.67;9.00;;;;;6.50;100501.00;;;;10028391;29;20231;-80
2023/12/09 01:51:49;;;;;;;24.97;8.53;;;;;6.50;100511.00;;;;10047625;29;20267;-79
2023/12/09 01:56:51;;;;;;;29.43;8.67;;;;;6.50;100486.00;;;;10041326;29;20297;-80
2023/12/09 02:01:53;;;;;;;27.03;7.57;;;;;6.40;100480.00;;;;10036096;29;20711;-80
2023/12/09 02:06:54;;;;;;;29.30;8.37;;;;;6.40;100489.00;;;;10050675;29;20236;-87
2023/12/09 02:12:05;;;;;;;31.67;7.97;;;;;6.40;100491.00;;;;10015565;29;21087;-87
2023/12/09 02:17:18;;;;;;;23.40;8.67;;;;;6.40;100479.00;;;;10050657;29;20234;-88
2023/12/09 02:22:19;;;;;;;22.00;7.97;;;;;6.40;100468.00;;;;10055485;29;20312;-87
2023/12/09 02:27:55;;;;;;;23.40;8.03;;;;;6.40;100470.00;;;;9999919;29;20560;-87
2023/12/09 02:32:58;;;;;;;30.53;8.80;;;;;6.50;100456.00;;;;10026483;29;21039;-87
2023/12/09 02:38:01;;;;;;;23.47;8.73;;;;;6.50;100457.00;;;;10033364;29;20244;-88
2023/12/09 02:43:03;;;;;;;31.73;8.73;;;;;6.40;100454.00;;;;10039950;29;20296;-86
2023/12/09 02:48:04;;;;;;;31.80;9.07;;;;;6.40;100450.00;;;;10043825;29;20220;-87
2023/12/09 02:53:06;;;;;;;26.37;7.77;;;;;6.30;100448.00;;;;10004396;29;20232;-87
2023/12/09 02:58:07;;;;;;;28.00;9.27;;;;;6.30;100439.00;;;;10030829;29;20882;-87
2023/12/09 03:03:08;;;;;;;31.37;8.93;;;;;6.40;100447.00;;;;10013284;29;20246;-85
2023/12/09 03:08:10;;;;;;;24.87;7.73;;;;;6.30;100435.00;;;;10037602;29;20225;-86
2023/12/09 03:13:11;;;;;;;26.57;8.53;;;;;6.30;100427.00;;;;10027049;29;20239;-87
2023/12/09 03:18:12;;;;;;;23.63;8.90;;;;;6.40;100426.00;;;;10044024;29;20243;-81
2023/12/09 03:23:14;;;;;;;24.43;8.63;;;;;6.40;100412.00;;;;10017899;29;20259;-80
2023/12/09 03:28:15;;;;;;;32.03;8.83;;;;;6.30;100400.00;;;;10021961;29;20233;-80
2023/12/09 03:33:16;;;;;;;24.73;9.50;;;;;6.30;100392.00;;;;10029393;29;20312;-80
2023/12/09 03:38:17;;;;;;;28.17;8.17;;;;;6.30;100371.00;;;;10020692;29;20286;-80
2023/12/09 03:43:19;;;;;;;17.90;6.63;;;;;6.30;100374.00;;;;10042346;29;20898;-81
2023/12/09 03:48:20;;;;;;;41.53;10.77;;;;;6.40;100380.00;;;;10032383;29;20229;-81
2023/12/09 03:53:21;;;;;;;36.83;10.13;;;;;6.40;100362.00;;;;10036623;29;20248;-80
2023/12/09 03:58:22;;;;;;;30.83;10.20;;;;;6.50;100358.00;;;;10008431;29;20312;-80
2023/12/09 04:03:23;;;;;;;34.10;9.30;;;;;6.50;100356.00;;;;10033256;29;20236;-80
2023/12/09 04:08:25;;;;;;;29.70;9.60;;;;;6.60;100340.00;;;;10022947;29;20225;-80
2023/12/09 04:13:27;;;;;;;32.80;10.07;;;;;6.60;100346.00;;;;10025672;29;20235;-79
2023/12/09 04:18:28;;;;;;;31.33;9.60;;;;;6.60;100346.00;;;;10009387;29;20256;-81
2023/12/09 04:23:29;;;;;;;35.00;9.20;;;;;6.60;100319.00;;;;10033161;29;20225;-80
2023/12/09 04:28:30;;;;;;;31.97;9.13;;;;;6.60;100311.00;;;;10003640;29;20248;-86
2023/12/09 04:33:32;;;;;;;34.07;9.60;;;;;6.70;100302.00;;;;10044266;29;20504;-86
2023/12/09 04:38:34;;;;;;;27.37;9.17;;;;;6.60;100304.00;;;;10002623;29;20569;-87
2023/12/09 04:43:35;;;;;;;25.80;8.90;;;;;6.60;100302.00;;;;10042955;29;20407;-86
2023/12/09 04:48:36;;;;;;;32.47;8.37;;;;;6.80;100287.00;;;;10051998;29;20293;-86
2023/12/09 04:53:37;;;;;;;25.07;8.03;;;;;6.80;100281.00;;;;10016210;29;20236;-87
2023/12/09 04:58:42;;;;;;;23.03;8.13;;;;;6.90;100284.00;;;;10036025;29;20720;-87
2023/12/09 05:03:43;;;;;;;22.50;6.53;;;;;6.90;100271.00;;;;10048789;29;20428;-86
2023/12/09 05:08:44;;;;;;;21.93;7.87;;;;;7.00;100267.00;;;;10024917;29;20256;-87
2023/12/09 05:13:45;;;;;;;24.00;6.60;;;;;7.00;100277.00;;;;10053295;29;20232;-87
2023/12/09 05:18:46;;;;;;;29.20;6.43;;;;;7.00;100284.00;;;;10024508;29;20232;-87
2023/12/09 05:23:48;;;;;;;21.03;6.73;;;;;7.10;100284.00;;;;10008992;29;20233;-85
2023/12/09 05:28:50;;;;;;;22.97;7.43;;;;;7.20;100283.00;;;;10044231;29;20262;-86
2023/12/09 05:33:51;;;;;;;16.67;5.77;;;;;7.10;100272.00;;;;10031918;29;20233;-87
2023/12/09 05:38:53;;;;;;;25.13;6.70;;;;;7.10;100267.00;;;;10031186;29;20327;-80
2023/12/09 05:43:54;;;;;;;20.57;7.03;;;;;7.10;100271.00;;;;10001743;29;20247;-81
2023/12/09 05:48:55;;;;;;;21.53;5.53;;;;;7.20;100258.00;;;;10054308;29;20251;-81
2023/12/09 05:53:57;;;;;;;18.20;5.37;;;;;7.30;100257.00;;;;10016585;29;20354;-82
2023/12/09 05:58:58;;;;;;;23.70;5.77;;;;;7.30;100251.00;;;;10045478;29;20225;-81
2023/12/09 06:03:59;;;;;;;22.93;5.67;;;;;7.30;100234.00;;;;10024008;29;20234;-85
2023/12/09 06:09:01;;;;;;;24.53;5.83;;;;;7.40;100212.00;;;;10033733;29;20231;-83
2023/12/09 06:14:03;;;;;;;14.77;4.27;;;;;7.40;100213.00;;;;10028967;29;20802;-80
2023/12/09 06:19:04;;;;;;;16.57;4.40;;;;;7.40;100206.00;;;;10027400;29;20323;-79
2023/12/09 06:24:05;;;;;;;20.93;4.80;;;;;7.40;100205.00;;;;10036654;29;20263;-82
2023/12/09 06:29:06;;;;;;;19.07;5.13;;;;;7.40;100195.00;;;;10005913;29;20252;-80
2023/12/09 06:34:08;;;;;;;15.87;4.37;;;;;7.40;100163.00;;;;10018314;29;20237;-80
2023/12/09 06:39:09;;;;;;;15.10;4.13;;;;;7.40;100163.00;;;;10048694;29;20255;-80
2023/12/09 06:44:10;;;;;;;21.83;4.97;;;;;7.40;100155.00;;;;10034299;29;20235;-79
2023/12/09 06:49:12;;;;;;;15.73;3.73;;;;;7.30;100144.00;;;;10056064;29;20718;-79
2023/12/09 06:54:13;;;;;;;18.83;4.43;;;;;7.30;100137.00;;;;10037875;29;20232;-78
2023/12/09 06:59:14;;;;;;;19.00;4.30;;;;;7.40;100138.00;;;;10045289;29;20229;-79
2023/12/09 07:04:16;;;;;;;16.57;3.73;;;;;7.40;100118.00;;;;10017958;29;21063;-80
2023/12/09 07:09:17;;;;;;;16.07;4.00;;;;;7.40;100112.00;;;;10009231;29;20221;-80
2023/12/09 07:14:19;;;;;;;11.93;3.63;;;;;7.40;100087.00;;;;10036773;29;20908;-81
2023/12/09 07:19:20;;;;;;;22.53;5.20;;;;;7.50;100082.00;;;;10020954;29;20254;-80
2023/12/09 07:24:21;;;;;;;20.57;5.47;;;;;7.50;100059.00;;;;10020113;29;20251;-80
2023/12/09 07:29:24;;;;;;;16.70;4.07;;;;;7.60;100049.00;;;;10035455;29;20231;-81
2023/12/09 07:34:26;;;;;;;19.37;4.10;;;;;7.60;100058.00;;;;10024839;29;20865;-80
2023/12/09 07:39:27;;;;;;;20.90;3.90;;;;;7.70;100050.00;;;;10050275;29;20906;-81
2023/12/09 07:44:28;;;;;;;11.93;3.53;;;;;7.70;100045.00;;;;10019674;29;20285;-80
2023/12/09 07:49:30;;;;;;;16.23;4.00;;;;;7.80;100029.00;;;;10021135;29;20228;-78
2023/12/09 07:54:31;;;;;;;17.60;4.67;;;;;7.80;100027.00;;;;10037786;29;20240;-79
2023/12/09 07:59:32;;;;;;;22.37;4.43;;;;;7.90;100010.00;;;;10013102;29;20296;-86
2023/12/09 08:04:33;;;;;;;19.77;4.50;;;;;7.90;100008.00;;;;10037975;29;20251;-86
2023/12/09 08:09:35;;;;;;;18.47;4.40;;;;;7.90;100000.00;;;;10016763;29;20875;-84
2023/12/09 08:14:36;;;;;;;13.63;3.30;;;;;7.90;100004.00;;;;10035538;29;20276;-87
2023/12/09 08:19:38;;;;;;;23.77;4.87;;;;;8.00;99983.00;;;;10007175;29;20296;-85
2023/12/09 08:24:40;;;;;;;20.90;4.40;;;;;8.00;99989.00;;;;10042361;29;20233;-87
2023/12/09 08:29:41;;;;;;;13.57;4.23;;;;;8.10;99981.00;;;;10051548;29;20314;-86
2023/12/09 08:34:42;;;;;;;14.37;4.10;;;;;8.10;99975.00;;;;10031497;29;20323;-87
2023/12/09 08:39:56;;;;;;;14.43;2.97;;;;;8.20;99954.00;;;;10039611;29;20224;-86
2023/12/09 08:44:57;;;;;;;14.17;3.63;;;;;8.20;99947.00;;;;10030281;29;20244;-86
2023/12/09 08:49:58;;;;;;;14.30;4.57;;;;;8.20;99934.00;;;;10011306;29;20256;-88
2023/12/09 08:55:01;;;;;;;12.27;3.47;;;;;8.30;99931.00;;;;10034095;29;20240;-86
2023/12/09 09:00:08;;;;;;;13.93;3.90;;;;;8.40;99920.00;;;;10035410;29;20240;-87
2023/12/09 09:05:09;;;;;;;9.57;3.50;;;;;8.60;99898.00;;;;10008132;29;20224;-85
2023/12/09 09:10:11;;;;;;;12.57;3.23;;;;;8.70;99888.00;;;;10016920;29;20288;-81
2023/12/09 09:15:12;;;;;;;10.43;3.10;;;;;8.80;99855.00;;;;10012941;29;20265;-79
2023/12/09 09:20:14;;;;;;;11.00;2.67;;;;;8.80;99836.00;;;;10029899;29;20235;-80
2023/12/09 09:25:15;;;;;;;10.93;3.27;;;;;8.90;99833.00;;;;10031130;29;20273;-79
2023/12/09 09:30:22;;;;;;;11.17;2.93;;;;;9.10;99823.00;;;;10020571;29;20255;-79
2023/12/09 09:35:24;;;;;;;12.53;2.60;;;;;9.20;99798.00;;;;10010624;29;20243;-83
2023/12/09 09:40:25;;;;;;;11.37;3.23;;;;;9.10;99792.00;;;;10026581;29;20308;-80
2023/12/09 09:45:30;;;;;;;6.13;2.33;;;;;8.90;99773.00;;;;10021811;29;20289;-80
2023/12/09 09:50:44;;;;;;;9.47;2.00;;;;;8.70;99780.00;;;;10000793;29;20327;-80
2023/12/09 09:55:45;;;;;;;8.77;2.00;;;;;8.60;99779.00;;;;10004320;29;21065;-81
2023/12/09 10:00:48;;;;;;;5.07;1.70;;;;;8.40;99771.00;;;;10030666;29;20224;-80
2023/12/09 10:05:51;;;;;;;6.53;1.90;;;;;8.40;99758.00;;;;10042123;29;20235;-80
2023/12/09 10:10:52;;;;;;;5.13;2.33;;;;;8.30;99727.00;;;;10031631;29;20236;-80
2023/12/09 10:15:53;;;;;;;2.63;1.27;;;;;8.20;99715.00;;;;10035222;29;20277;-81
2023/12/09 10:20:55;;;;;;;7.53;1.70;;;;;8.20;99706.00;;;;10043213;29;20232;-80
2023/12/09 10:25:58;;;;;;;5.23;1.73;;;;;8.20;99688.00;;;;10022980;29;20907;-80
2023/12/09 10:31:01;;;;;;;7.03;2.23;;;;;8.30;99653.00;;;;10021536;29;20265;-79
2023/12/09 10:36:02;;;;;;;3.50;1.13;;;;;8.40;99629.00;;;;10037681;29;20229;-79
2023/12/09 10:41:04;;;;;;;3.77;1.10;;;;;8.40;99605.00;;;;10023219;29;20323;-80
2023/12/09 10:46:05;;;;;;;3.20;1.27;;;;;8.40;99574.00;;;;10042055;29;20240;-80
2023/12/09 10:51:07;;;;;;;3.30;1.27;;;;;8.40;99538.00;;;;10017036;29;20224;-80
2023/12/09 10:56:09;;;;;;;3.10;1.17;;;;;8.50;99508.00;;;;10030750;29;20232;-79
2023/12/09 11:01:11;;;;;;;1.10;1.00;;;;;8.50;99471.00;;;;10015390;29;20260;-80
2023/12/09 11:06:15;;;;;;;2.57;0.70;;;;;8.40;99434.00;;;;10036639;29;20227;-80
2023/12/09 11:11:18;;;;;;;2.53;1.10;;;;;8.50;99409.00;;;;10034462;29;20240;-80
2023/12/09 11:16:21;;;;;;;5.03;1.07;;;;;8.50;99383.00;;;;10013579;29;20309;-80
2023/12/09 11:21:26;;;;;;;3.57;0.90;;;;;8.40;99375.00;;;;10035287;29;20261;-79
2023/12/09 11:26:33;;;;;;;1.67;0.80;;;;;8.40;99385.00;;;;10015376;29;20239;-81
2023/12/09 11:31:38;;;;;;;1.87;0.70;;;;;8.30;99370.00;;;;10043071;29;20229;-79
2023/12/09 11:36:40;;;;;;;2.37;0.80;;;;;8.40;99334.00;;;;10032092;29;20795;-80
2023/12/09 11:41:41;;;;;;;3.37;1.00;;;;;8.30;99320.00;;;;10051554;29;20232;-79
2023/12/09 11:46:43;;;;;;;3.93;1.03;;;;;8.20;99286.00;;;;10035305;29;20284;-80
2023/12/09 11:51:45;;;;;;;1.53;0.80;;;;;8.30;99256.00;;;;10051218;29;20320;-80
2023/12/09 11:56:46;;;;;;;1.37;0.90;;;;;8.40;99258.00;;;;10038732;29;20700;-79
2023/12/09 12:01:47;;;;;;;2.37;1.00;;;;;8.50;99241.00;;;;10048150;29;20260;-79
2023/12/09 12:06:48;;;;;;;2.20;0.83;;;;;8.50;99219.00;;;;10030618;29;20229;-80
2023/12/09 12:11:50;;;;;;;2.23;0.60;;;;;8.40;99180.00;;;;10029947;29;20855;-79
2023/12/09 12:16:51;;;;;;;1.70;0.60;;;;;8.30;99182.00;;;;10046421;29;20237;-80
2023/12/09 12:21:53;;;;;;;3.00;0.60;;;;;8.30;99163.00;;;;10030075;29;20228;-79
2023/12/09 12:26:59;;;;;;;3.23;0.70;;;;;8.30;99138.00;;;;10010606;29;20248;-79
2023/12/09 12:32:00;;;;;;;3.67;0.70;;;;;8.10;99114.00;;;;10007568;29;20239;-80
2023/12/09 12:37:02;;;;;;;2.60;0.70;;;;;8.10;99098.00;;;;10054666;29;20377;-78
2023/12/09 12:42:03;;;;;;;0.97;0.60;;;;;8.20;99079.00;;;;10034465;29;20233;-78
2023/12/09 12:47:05;;;;;;;3.30;0.73;;;;;8.10;99081.00;;;;10052445;29;20890;-79
2023/12/09 12:52:07;;;;;;;3.53;1.20;;;;;8.10;99050.00;;;;10019147;29;20239;-79
2023/12/09 12:57:09;;;;;;;3.67;0.70;;;;;8.20;99020.00;;;;10038959;29;20237;-79
2023/12/09 13:02:10;;;;;;;2.73;0.77;;;;;8.30;98987.00;;;;9999997;29;20225;-78
2023/12/09 13:07:11;;;;;;;0.73;0.40;;;;;8.30;98965.00;;;;10011262;29;20735;-78
2023/12/09 13:12:12;;;;;;;2.30;0.60;;;;;8.20;98952.00;;;;10007833;29;20676;-79
2023/12/09 13:17:14;;;;;;;1.60;0.57;;;;;8.10;98932.00;;;;10047057;29;20719;-80
2023/12/09 13:22:15;;;;;;;1.60;0.60;;;;;8.10;98920.00;;;;10043522;29;20242;-78
2023/12/09 13:27:17;;;;;;;1.57;0.80;;;;;8.10;98892.00;;;;10028211;29;20428;-78
2023/12/09 13:32:18;;;;;;;1.93;0.60;;;;;8.20;98876.00;;;;10015767;29;20240;-79
2023/12/09 13:37:20;;;;;;;0.60;0.50;;;;;8.30;98871.00;;;;10048075;29;21148;-81
2023/12/09 13:42:21;;;;;;;1.90;0.63;;;;;8.40;98844.00;;;;10012711;29;20245;-79
2023/12/09 13:47:22;;;;;;;1.17;0.60;;;;;8.40;98823.00;;;;10041863;29;20244;-88
2023/12/09 13:52:29;;;;;;;0.83;0.47;;;;;8.40;98818.00;;;;10044102;29;20233;-85
2023/12/09 13:57:56;;;;;;;3.80;0.40;;;;;8.40;98804.00;;;;10757811;23;20236;31
2023/12/09 14:21:16;;;;;;;2.63;1.03;;;;;8.40;98748.00;;;;10149761;23;20246;-87
2023/12/09 14:26:17;;;;;;;0.30;0.30;;;;;8.60;98735.00;;;;10141548;29;20276;-82
2023/12/09 14:31:18;;;;;;;0.40;0.40;;;;;8.70;98725.00;;;;10134815;29;20227;-84
2023/12/09 14:43:05;;;;;;;0.30;0.20;;;;;8.70;98716.00;;;;3104668;24;20295;-85
2023/12/09 14:48:07;;;;;;;2.10;1.00;;;;;8.70;98692.00;;;;10167795;29;20231;-85
2023/12/09 14:53:12;;;;;;;0.50;0.50;;;;;8.70;98695.00;;;;10142624;29;20232;-87
2023/12/09 14:58:14;;;;;;;0.40;0.40;;;;;8.70;98696.00;;;;10123715;29;20227;-78
2023/12/09 15:03:16;;;;;;;0.80;0.53;;;;;8.70;98688.00;;;;10108497;29;20668;-78
2023/12/09 15:08:17;;;;;;;2.17;0.40;;;;;8.80;98678.00;;;;10117771;29;20230;-79
2023/12/09 15:13:19;;;;;;;0.37;0.30;;;;;8.80;98684.00;;;;10116497;29;20237;-78
2023/12/09 15:18:21;;;;;;;0.70;0.60;;;;;8.90;98667.00;;;;10113863;29;20318;-78
2023/12/09 15:23:22;;;;;;;0.57;0.33;;;;;8.90;98655.00;;;;10116745;29;20230;-78
2023/12/09 15:28:26;;;;;;;0.63;0.50;;;;;9.00;98686.00;;;;10114058;29;20275;-78
2023/12/09 15:33:28;;;;;;;0.43;0.43;;;;;9.00;98703.00;;;;10128668;29;20236;-79
2023/12/09 15:38:29;;;;;;;2.30;0.60;;;;;9.00;98715.00;;;;10134434;29;20306;-79
2023/12/09 15:43:30;;;;;;;0.60;0.40;;;;;9.00;98708.00;;;;10124741;29;20234;-79
2023/12/09 15:48:32;;;;;;;0.40;0.20;;;;;9.00;98695.00;;;;10116194;29;20254;-78
2023/12/09 15:53:37;;;;;;;0.70;0.50;;;;;9.10;98693.00;;;;10109890;29;20701;-79
2023/12/09 15:58:38;;;;;;;1.20;0.63;;;;;9.10;98681.00;;;;10102851;29;20235;-77
2023/12/09 16:03:41;;;;;;;0.93;0.70;;;;;9.20;98683.00;;;;10122511;29;20235;-79
2023/12/09 16:08:42;;;;;;;2.23;1.00;;;;;9.30;98677.00;;;;10108191;29;20811;-80
2023/12/09 16:13:43;;;;;;;1.63;0.87;;;;;9.40;98688.00;;;;10108336;29;20242;-80
2023/12/09 16:18:44;;;;;;;1.27;1.00;;;;;9.40;98693.00;;;;10105891;29;20238;-80
2023/12/09 16:23:46;;;;;;;2.93;2.00;;;;;9.50;98735.00;;;;10090081;29;20229;-80
2023/12/09 16:28:47;;;;;;;2.50;1.50;;;;;9.70;98716.00;;;;10122951;29;20230;-79
2023/12/09 16:33:50;;;;;;;2.83;2.53;;;;;9.80;98740.00;;;;10131377;29;20357;-79
2023/12/09 16:38:52;;;;;;;3.77;2.43;;;;;9.90;98731.00;;;;10088967;29;20227;-79
2023/12/09 16:43:53;;;;;;;4.63;2.70;;;;;9.90;98717.00;;;;10114834;29;20254;-80
2023/12/09 16:48:54;;;;;;;6.03;3.10;;;;;10.00;98715.00;;;;10124219;29;20333;-79
2023/12/09 16:53:56;;;;;;;6.77;3.10;;;;;10.10;98725.00;;;;10127973;29;20297;-80
2023/12/09 16:58:57;;;;;;;4.53;3.20;;;;;10.10;98732.00;;;;10092942;29;20836;-81
2023/12/09 17:03:59;;;;;;;5.43;4.00;;;;;10.10;98743.00;;;;10107109;29;20219;-80
2023/12/09 17:09:01;;;;;;;7.13;4.23;;;;;10.10;98738.00;;;;10134646;29;20231;-80
2023/12/09 17:14:04;;;;;;;9.00;6.10;;;;;10.10;98758.00;;;;10105903;29;20317;-80
2023/12/09 17:19:05;;;;;;;6.80;5.70;;;;;10.20;98758.00;;;;10117717;29;20805;-81
2023/12/09 17:24:07;;;;;;;6.47;5.40;;;;;10.10;98751.00;;;;10125776;29;20238;-81
2023/12/09 17:29:08;;;;;;;9.13;6.83;;;;;10.10;98768.00;;;;10122384;29;20230;-80
2023/12/09 17:34:09;;;;;;;6.90;6.23;;;;;10.20;98780.00;;;;10130756;29;20326;-82
2023/12/09 17:39:12;;;;;;;9.93;6.57;;;;;10.20;98793.00;;;;10114569;29;20245;-81
2023/12/09 17:44:13;;;;;;;8.90;7.10;;;;;10.30;98803.00;;;;10106732;29;20249;-81
2023/12/09 17:49:15;;;;;;;10.87;9.73;;;;;10.30;98818.00;;;;10112208;29;20227;-83
2023/12/09 17:54:16;;;;;;;9.43;6.43;;;;;10.40;98818.00;;;;10121112;29;20227;-82
2023/12/09 17:59:17;;;;;;;14.23;7.53;;;;;10.50;98826.00;;;;10107233;29;20242;-82
2023/12/09 18:04:18;;;;;;;14.07;5.17;;;;;10.50;98823.00;;;;10122159;29;20230;-83
2023/12/09 18:09:20;;;;;;;15.50;4.07;;;;;10.70;98844.00;;;;10127241;29;20302;-82
2023/12/09 18:14:21;;;;;;;19.47;4.30;;;;;10.80;98857.00;;;;10114702;29;20992;-83
2023/12/09 18:19:23;;;;;;;22.77;4.00;;;;;10.80;98849.00;;;;10107682;29;21108;-83
2023/12/09 18:24:24;;;;;;;22.13;4.60;;;;;10.80;98876.00;;;;10123593;29;20229;-82
2023/12/09 18:29:27;;;;;;;20.90;4.40;;;;;10.70;98900.00;;;;10110710;29;20705;-79
2023/12/09 18:34:28;;;;;;;18.73;4.13;;;;;10.60;98901.00;;;;10129727;29;20231;-81
2023/12/09 18:39:30;;;;;;;17.27;2.90;;;;;10.60;98907.00;;;;10140015;29;20219;-81
2023/12/09 18:44:31;;;;;;;19.90;3.60;;;;;10.40;98906.00;;;;10139598;29;20822;-82
2023/12/09 18:49:32;;;;;;;21.37;3.63;;;;;10.20;98928.00;;;;10121954;29;20258;-83
2023/12/09 18:54:35;;;;;;;17.57;3.90;;;;;10.00;98988.00;;;;10121419;29;20235;-80
2023/12/09 18:59:36;;;;;;;21.20;3.70;;;;;9.70;99018.00;;;;10113201;29;20226;-79
2023/12/09 19:04:37;;;;;;;20.27;4.10;;;;;9.50;99022.00;;;;10119333;29;20920;-79
2023/12/09 19:09:45;;;;;;;26.47;4.23;;;;;9.30;99032.00;;;;10129744;29;20225;-82
2023/12/09 19:14:46;;;;;;;21.63;5.17;;;;;9.20;99037.00;;;;10127555;29;20258;-79
2023/12/09 19:19:47;;;;;;;22.60;4.00;;;;;9.10;99043.00;;;;10122732;29;20317;-80
2023/12/09 19:24:49;;;;;;;35.43;5.53;;;;;8.90;99061.00;;;;10098123;29;20270;-80
2023/12/09 19:29:50;;;;;;;23.70;5.30;;;;;8.90;99071.00;;;;10092350;29;20809;-80
2023/12/09 19:34:51;;;;;;;22.73;4.60;;;;;8.90;99082.00;;;;10109366;29;20238;-81
2023/12/09 19:39:52;;;;;;;30.47;5.83;;;;;9.00;99105.00;;;;10099621;29;20998;-80
2023/12/09 19:44:54;;;;;;;30.73;6.30;;;;;9.10;99107.00;;;;10096410;29;20716;-81
2023/12/09 19:49:55;;;;;;;36.40;6.77;;;;;9.20;99117.00;;;;10119899;29;20259;-80
2023/12/09 19:54:57;;;;;;;33.37;6.23;;;;;9.10;99129.00;;;;10111800;29;20258;-81
2023/12/09 19:59:58;;;;;;;33.20;5.80;;;;;9.00;99150.00;;;;10130340;29;20738;-79
2023/12/09 20:05:00;;;;;;;24.23;5.30;;;;;9.00;99159.00;;;;10132192;29;20626;-80
2023/12/09 20:10:02;;;;;;;27.67;6.07;;;;;9.00;99148.00;;;;10142934;29;20230;-80
2023/12/09 20:15:06;;;;;;;27.33;6.30;;;;;9.00;99151.00;;;;10114484;29;20238;-81
2023/12/09 20:20:08;;;;;;;23.33;5.27;;;;;8.90;99162.00;;;;10096377;29;20234;-80
2023/12/09 20:25:09;;;;;;;27.30;5.97;;;;;8.80;99174.00;;;;10117289;29;20228;-81
2023/12/09 20:30:11;;;;;;;27.67;6.37;;;;;8.80;99186.00;;;;10134033;29;20261;-80
2023/12/09 20:35:12;;;;;;;26.10;5.07;;;;;8.70;99186.00;;;;10101973;29;21076;-81
2023/12/09 20:40:14;;;;;;;28.57;6.60;;;;;8.80;99204.00;;;;10128823;29;20242;-81
2023/12/09 20:45:15;;;;;;;22.83;4.63;;;;;8.80;99209.00;;;;10116214;29;20234;-81
2023/12/09 20:50:16;;;;;;;33.07;6.07;;;;;8.90;99216.00;;;;10101084;29;20236;-79
2023/12/09 20:55:19;;;;;;;25.63;5.77;;;;;8.90;99227.00;;;;10133203;29;20242;-79
2023/12/09 21:00:20;;;;;;;35.73;7.43;;;;;8.80;99253.00;;;;10096163;29;20766;-81
2023/12/09 21:05:22;;;;;;;31.83;6.03;;;;;8.80;99280.00;;;;10121917;29;22096;-80
2023/12/09 21:10:23;;;;;;;29.60;6.33;;;;;8.90;99281.00;;;;10115767;29;20239;-78
2023/12/09 21:15:26;;;;;;;32.90;5.73;;;;;9.00;99296.00;;;;10142334;29;20231;-79
2023/12/09 21:20:27;;;;;;;31.43;6.67;;;;;9.00;99295.00;;;;10141260;29;20218;-80
2023/12/09 21:25:28;;;;;;;34.43;6.37;;;;;9.00;99312.00;;;;10115131;29;20854;-78
2023/12/09 21:30:30;;;;;;;19.53;4.70;;;;;9.00;99330.00;;;;10110829;29;20279;-82
2023/12/09 21:35:31;;;;;;;31.73;6.20;;;;;9.00;99340.00;;;;10117517;29;20234;-80
2023/12/09 21:40:32;;;;;;;37.83;5.77;;;;;9.10;99362.00;;;;10120431;29;20321;-79
2023/12/09 21:45:33;;;;;;;30.70;6.03;;;;;9.10;99386.00;;;;10112386;29;20230;-78
2023/12/09 21:50:36;;;;;;;33.10;5.90;;;;;9.10;99405.00;;;;10130336;29;20222;-82
2023/12/09 21:55:39;;;;;;;23.30;5.30;;;;;9.00;99408.00;;;;10105914;29;20239;-81
2023/12/09 22:00:40;;;;;;;34.27;6.53;;;;;9.00;99415.00;;;;10111240;29;20258;-81
2023/12/09 22:05:42;;;;;;;36.13;6.33;;;;;9.00;99424.00;;;;10095117;29;20249;-83
2023/12/09 22:10:44;;;;;;;40.17;6.87;;;;;9.00;99432.00;;;;10140412;29;20313;-80
2023/12/09 22:15:46;;;;;;;33.97;7.10;;;;;9.00;99431.00;;;;10113071;29;20230;-81
2023/12/09 22:20:47;;;;;;;25.10;6.50;;;;;8.90;99436.00;;;;10106613;29;20254;-80
2023/12/09 22:25:48;;;;;;;32.37;5.60;;;;;8.90;99439.00;;;;10100872;29;20223;-79
2023/12/09 22:30:49;;;;;;;29.13;6.27;;;;;8.90;99461.00;;;;10115656;29;20242;-80
2023/12/09 22:35:51;;;;;;;31.10;6.53;;;;;9.00;99466.00;;;;10109562;29;20307;-80
2023/12/09 22:40:52;;;;;;;32.30;6.80;;;;;9.00;99479.00;;;;10123500;29;21310;-81
2023/12/09 22:45:53;;;;;;;23.23;6.23;;;;;9.00;99481.00;;;;10116477;29;20254;-80
2023/12/09 22:50:55;;;;;;;30.93;6.17;;;;;9.00;99487.00;;;;10100207;29;20234;-80
2023/12/09 22:55:56;;;;;;;27.67;6.10;;;;;9.00;99481.00;;;;10112750;29;20566;-80
2023/12/09 23:01:16;;;;;;;37.60;6.17;;;;;9.10;99482.00;;;;10139470;29;20234;-81
2023/12/09 23:06:19;;;;;;;32.70;6.17;;;;;9.10;99511.00;;;;10109733;29;20297;-79
2023/12/09 23:11:20;;;;;;;29.93;6.60;;;;;9.10;99513.00;;;;10117797;29;20243;-80
2023/12/09 23:16:22;;;;;;;28.90;6.63;;;;;9.00;99540.00;;;;10108019;29;20339;-79
2023/12/09 23:21:23;;;;;;;34.80;6.57;;;;;9.10;99550.00;;;;10140464;29;20219;-79
2023/12/09 23:26:24;;;;;;;36.40;6.80;;;;;9.20;99542.00;;;;10112063;29;20860;-79
2023/12/09 23:31:25;;;;;;;31.63;6.17;;;;;9.30;99566.00;;;;10098449;29;20234;-76
2023/12/09 23:36:40;;;;;;;23.30;5.70;;;;;9.20;99564.00;;;;10149871;29;20250;-78
2023/12/09 23:41:41;;;;;;;26.07;5.13;;;;;9.30;99570.00;;;;10135346;29;20246;-79
2023/12/09 23:46:43;;;;;;;30.87;5.80;;;;;9.40;99577.00;;;;10134094;29;20702;-78
2023/12/09 23:51:44;;;;;;;30.40;5.83;;;;;9.40;99589.00;;;;10122136;29;20322;-79
2023/12/09 23:56:46;;;;;;;32.80;5.80;;;;;9.50;99595.00;;;;10136744;29;20782;-79
